Terminal Aerodrome Forecast
Issued by NWS Miami, FL

Home | Current Version | Previous Version | Text Only | Print | Product List | Glossary On
Versions: 1 2 3 4 5 6 7 8 9 10 11 12 13 14 15 16 17 18 19 20 21 22 23 24 25 26 27 28
000
FTUS42 KMFL 281731
TAFAPF
TAF
KAPF 281731Z 2818/2918 26007KT P6SM VCTS SCT030CB SCT080 BKN250
     FM282000 29008KT P6SM SCT030 SCT250
     FM290100 33003KT P6SM SCT250
     FM291700 25007KT P6SM VCTS SCT025CB SCT200=

USA.gov is the U.S. government's official web portal to all federal, state and local government web resources and services.